Logansport, Louisiana
Current Conditions -  °F | °C
As of 5:56 AM on Friday 19 Dec 2014 (Local Time) from KSHV Reporting Station
Overcast Overcast  
Wind Chill: 50°   Ceiling: 2400
Heat Index: 50°   Visibility: 10mi
Dew Point: 46°   Wind: 12mph
Humidity: 86%   Direction: 60°ENE
Pressure: 30.11"   Gusts: NA
Location:  31.98°N, 94°W
Report Text: KSHV 191156Z 06010KT 10SM FEW010 OVC024 10/08 A3011 RMK AO2 SLP195 T01000078 10106 20100 55007
Loading
Personal Weather Stations






























Interactive Weather Map New forecast layout! Learn more

10-Day Weather Forecast

Advertisements
Track Severe Weather on mobile